createdAt,value
2023-01-11T00:01:04.892Z,100.00
2023-01-11T00:03:32.040Z,100.00
2023-01-11T00:05:59.113Z,100.00
2023-01-11T00:08:27.245Z,100.00
2023-01-11T00:10:54.994Z,100.00
2023-01-11T00:13:21.620Z,100.00
2023-01-11T00:15:48.514Z,100.00
2023-01-11T00:18:15.150Z,100.00
2023-01-11T00:20:42.216Z,100.00
2023-01-11T00:23:09.171Z,100.00
2023-01-11T00:25:36.756Z,100.00
2023-01-11T00:28:03.935Z,100.00
2023-01-11T00:30:30.505Z,100.00
2023-01-11T00:32:58.870Z,100.00
2023-01-11T00:35:27.588Z,100.00
2023-01-11T00:37:55.648Z,100.00
2023-01-11T00:40:24.264Z,100.00
2023-01-11T00:43:10.842Z,100.00
2023-01-11T00:45:56.439Z,100.00
2023-01-11T00:48:23.306Z,100.00
2023-01-11T00:50:55.216Z,100.00
2023-01-11T00:53:22.607Z,100.00
2023-01-11T00:55:49.360Z,100.00
2023-01-11T00:58:16.543Z,100.00
2023-01-11T01:00:44.426Z,100.00
2023-01-11T01:03:10.897Z,100.00
2023-01-11T01:05:41.831Z,100.00
2023-01-11T01:08:08.764Z,100.00
2023-01-11T01:10:35.924Z,100.00
2023-01-11T01:13:21.079Z,100.00
2023-01-11T01:15:47.841Z,100.00
2023-01-11T01:18:14.323Z,100.00
2023-01-11T01:20:40.975Z,100.00
2023-01-11T01:23:07.812Z,100.00
2023-01-11T01:25:36.762Z,100.00
2023-01-11T01:28:03.318Z,100.00
2023-01-11T01:30:29.770Z,100.00
2023-01-11T01:32:56.436Z,100.00
2023-01-11T01:35:22.851Z,100.00
2023-01-11T01:37:49.359Z,100.00
2023-01-11T01:40:16.099Z,100.00
2023-01-11T01:42:42.930Z,100.00
2023-01-11T01:45:24.492Z,100.00
2023-01-11T01:47:58.224Z,100.00
2023-01-11T01:50:49.097Z,100.00
2023-01-11T01:53:24.329Z,100.00
2023-01-11T01:55:54.921Z,100.00
2023-01-11T01:58:27.187Z,100.00
2023-01-11T02:00:54.056Z,100.00
2023-01-11T02:03:27.021Z,100.00
2023-01-11T02:05:54.299Z,100.00
2023-01-11T02:08:34.660Z,100.00
2023-01-11T02:11:03.176Z,100.00
2023-01-11T02:13:30.929Z,100.00
2023-01-11T02:16:09.402Z,100.00
2023-01-11T02:18:37.548Z,100.00
2023-01-11T02:21:13.791Z,100.00
2023-01-11T02:24:06.511Z,100.00
2023-01-11T02:26:55.888Z,100.00
2023-01-11T02:29:47.174Z,100.00
2023-01-11T02:32:32.188Z,100.00
2023-01-11T02:35:21.352Z,100.00
2023-01-11T02:38:08.953Z,100.00
2023-01-11T02:40:53.781Z,100.00
2023-01-11T02:44:08.307Z,100.00
2023-01-11T02:46:40.976Z,100.00
2023-01-11T02:49:30.498Z,100.00
2023-01-11T02:52:06.323Z,100.00
2023-01-11T02:54:34.188Z,100.00
2023-01-11T02:57:04.572Z,100.00
2023-01-11T02:59:34.201Z,100.00
2023-01-11T03:02:03.380Z,100.00
2023-01-11T03:04:34.282Z,100.00
2023-01-11T03:07:28.920Z,100.00
2023-01-11T03:10:02.308Z,100.00
2023-01-11T03:12:55.447Z,100.00
2023-01-11T03:16:01.706Z,100.00
2023-01-11T03:18:54.102Z,100.00
2023-01-11T03:21:58.899Z,100.00
2023-01-11T03:24:45.627Z,100.00
2023-01-11T03:27:22.858Z,100.00
2023-01-11T03:30:19.702Z,100.00
2023-01-11T03:32:56.294Z,100.00
2023-01-11T03:35:46.058Z,100.00
2023-01-11T03:38:15.943Z,100.00
2023-01-11T03:40:57.325Z,100.00
2023-01-11T03:43:26.609Z,100.00
2023-01-11T03:45:58.763Z,100.00
2023-01-11T03:48:38.719Z,100.00
2023-01-11T03:51:11.683Z,100.00
2023-01-11T03:53:39.811Z,100.00
2023-01-11T03:56:12.615Z,100.00
2023-01-11T03:58:41.474Z,100.00
2023-01-11T04:01:09.048Z,100.00
2023-01-11T04:03:36.060Z,100.00
2023-01-11T04:06:03.357Z,100.00
2023-01-11T04:08:31.129Z,100.00
2023-01-11T04:10:57.687Z,100.00
2023-01-11T04:13:24.896Z,100.00
2023-01-11T04:15:55.706Z,100.00
2023-01-11T04:18:22.471Z,100.00
2023-01-11T04:20:51.783Z,100.00
2023-01-11T04:23:18.625Z,100.00
2023-01-11T04:25:45.189Z,100.00
2023-01-11T04:28:11.596Z,100.00
2023-01-11T04:30:38.497Z,100.00
2023-01-11T04:33:04.997Z,100.00
2023-01-11T04:35:32.343Z,100.00
2023-01-11T04:38:00.138Z,100.00
2023-01-11T04:40:27.251Z,100.00
2023-01-11T04:42:54.552Z,100.00
2023-01-11T04:45:26.197Z,100.00
2023-01-11T04:47:57.821Z,100.00
2023-01-11T04:50:26.042Z,100.00
2023-01-11T04:52:53.044Z,100.00
2023-01-11T04:55:20.992Z,100.00
2023-01-11T04:57:48.052Z,100.00
2023-01-11T05:00:24.924Z,100.00
2023-01-11T05:02:51.982Z,100.00
2023-01-11T05:05:19.259Z,100.00
2023-01-11T05:07:50.961Z,100.00
2023-01-11T05:10:20.895Z,100.00
2023-01-11T05:12:48.027Z,100.00
2023-01-11T05:15:15.475Z,100.00
2023-01-11T05:17:41.947Z,100.00
2023-01-11T05:20:11.692Z,100.00
2023-01-11T05:22:38.223Z,100.00
2023-01-11T05:25:05.167Z,100.00
2023-01-11T05:27:31.718Z,100.00
2023-01-11T05:29:58.165Z,100.00
2023-01-11T05:32:24.649Z,100.00
2023-01-11T05:34:52.083Z,100.00
2023-01-11T05:37:20.391Z,100.00
2023-01-11T05:39:47.256Z,100.00
2023-01-11T05:42:14.021Z,100.00
2023-01-11T05:44:59.132Z,100.00
2023-01-11T05:47:25.903Z,100.00
2023-01-11T05:49:52.380Z,100.00
2023-01-11T05:52:19.219Z,100.00
2023-01-11T05:54:46.035Z,100.00
2023-01-11T05:57:12.481Z,100.00
2023-01-11T05:59:38.981Z,100.00
2023-01-11T06:02:05.970Z,100.00
2023-01-11T06:04:32.857Z,100.00
2023-01-11T06:06:59.488Z,100.00
2023-01-11T06:09:26.214Z,100.00
2023-01-11T06:11:54.703Z,100.00
2023-01-11T06:14:21.162Z,100.00
2023-01-11T06:16:47.711Z,100.00
2023-01-11T06:19:14.480Z,100.00
2023-01-11T06:21:41.299Z,100.00
2023-01-11T06:24:08.323Z,100.00
2023-01-11T06:26:34.895Z,100.00
2023-01-11T06:29:01.492Z,100.00
2023-01-11T06:31:27.963Z,100.00
2023-01-11T06:33:54.502Z,100.00
2023-01-11T06:36:21.415Z,100.00
2023-01-11T06:38:47.864Z,100.00
2023-01-11T06:41:16.021Z,100.00
2023-01-11T06:43:42.801Z,100.00
2023-01-11T06:46:14.432Z,100.00
2023-01-11T06:48:42.407Z,100.00
2023-01-11T06:51:14.902Z,100.00
2023-01-11T06:53:43.269Z,100.00
2023-01-11T06:56:13.391Z,100.00
2023-01-11T06:58:40.192Z,100.00
2023-01-11T07:01:10.277Z,100.00
2023-01-11T07:03:41.755Z,100.00
2023-01-11T07:06:09.168Z,100.00
2023-01-11T07:08:38.177Z,100.00
2023-01-11T07:11:13.140Z,100.00
2023-01-11T07:13:43.499Z,100.00
2023-01-11T07:16:10.067Z,100.00
2023-01-11T07:18:37.328Z,100.00
2023-01-11T07:21:05.305Z,100.00
2023-01-11T07:23:31.835Z,100.00
2023-01-11T07:25:58.546Z,100.00
2023-01-11T07:28:25.150Z,100.00
2023-01-11T07:30:58.801Z,100.00
2023-01-11T07:33:26.793Z,100.00
2023-01-11T07:35:53.736Z,100.00
2023-01-11T07:38:20.932Z,100.00
2023-01-11T07:40:47.591Z,100.00
2023-01-11T07:43:19.996Z,100.00
2023-01-11T07:45:49.610Z,100.00
2023-01-11T07:48:22.531Z,100.00
2023-01-11T07:50:49.252Z,100.00
2023-01-11T07:53:16.450Z,100.00
2023-01-11T07:55:50.723Z,100.00
2023-01-11T07:58:17.274Z,100.00
2023-01-11T08:00:45.927Z,100.00
2023-01-11T08:03:12.567Z,100.00
2023-01-11T08:05:39.363Z,100.00
2023-01-11T08:08:07.491Z,100.00
2023-01-11T08:10:34.496Z,100.00
2023-01-11T08:13:19.599Z,100.00
2023-01-11T08:15:46.452Z,100.00
2023-01-11T08:18:14.494Z,100.00
2023-01-11T08:20:41.324Z,100.00
2023-01-11T08:23:11.990Z,100.00
2023-01-11T08:25:44.038Z,100.00
2023-01-11T08:28:11.659Z,100.00
2023-01-11T08:30:39.788Z,100.00
2023-01-11T08:33:06.917Z,100.00
2023-01-11T08:35:38.649Z,100.00
2023-01-11T08:38:06.742Z,100.00
2023-01-11T08:40:34.210Z,100.00
2023-01-11T08:43:01.814Z,100.00
2023-01-11T08:45:30.980Z,100.00
2023-01-11T08:48:01.225Z,100.00
2023-01-11T08:50:27.889Z,100.00
2023-01-11T08:52:54.445Z,100.00
2023-01-11T08:55:20.999Z,100.00
2023-01-11T08:57:50.938Z,100.00
2023-01-11T09:00:19.578Z,100.00
2023-01-11T09:02:46.159Z,100.00
2023-01-11T09:05:13.478Z,100.00
2023-01-11T09:07:41.733Z,100.00
2023-01-11T09:10:10.027Z,100.00
2023-01-11T09:12:38.307Z,100.00
2023-01-11T09:15:06.112Z,100.00
2023-01-11T09:17:34.019Z,100.00
2023-01-11T09:20:00.705Z,100.00
2023-01-11T09:22:27.559Z,100.00
2023-01-11T09:25:00.108Z,100.00
2023-01-11T09:27:27.666Z,100.00
2023-01-11T09:29:56.262Z,100.00
2023-01-11T09:32:24.419Z,100.00
2023-01-11T09:34:53.509Z,100.00
2023-01-11T09:37:22.948Z,100.00
2023-01-11T09:39:52.478Z,100.00
2023-01-11T09:42:35.172Z,100.00
2023-01-11T09:45:16.880Z,100.00
2023-01-11T09:47:49.476Z,100.00
2023-01-11T09:50:31.425Z,100.00
2023-01-11T09:53:09.002Z,100.00
2023-01-11T09:55:40.964Z,100.00
2023-01-11T09:58:42.908Z,100.00
2023-01-11T10:01:38.058Z,100.00
2023-01-11T10:04:28.370Z,100.00
2023-01-11T10:07:24.784Z,100.00
2023-01-11T10:18:39.624Z,100.00
2023-01-11T10:19:39.994Z,100.00
2023-01-11T10:22:12.906Z,100.00
2023-01-11T10:24:47.295Z,100.00
2023-01-11T10:27:36.924Z,100.00
2023-01-11T10:30:33.879Z,100.00
2023-01-11T10:33:25.628Z,100.00
2023-01-11T10:36:18.305Z,100.00
2023-01-11T10:38:56.729Z,100.00
2023-01-11T10:41:37.724Z,100.00
2023-01-11T10:44:10.604Z,100.00
2023-01-11T10:46:43.482Z,100.00
2023-01-11T10:49:33.796Z,100.00
2023-01-11T10:52:20.031Z,100.00
2023-01-11T10:54:51.077Z,100.00
2023-01-11T10:58:00.281Z,100.00
2023-01-11T11:00:49.032Z,100.00
2023-01-11T11:03:38.869Z,100.00
2023-01-11T11:06:19.566Z,100.00
2023-01-11T11:08:56.226Z,100.00
2023-01-11T11:11:35.342Z,100.00
2023-01-11T11:14:10.365Z,100.00
2023-01-11T11:16:44.014Z,100.00
2023-01-11T11:19:16.086Z,100.00
2023-01-11T11:21:43.436Z,100.00
2023-01-11T11:24:44.119Z,100.00
2023-01-11T11:27:20.968Z,100.00
2023-01-11T11:29:53.205Z,100.00
2023-01-11T11:32:44.223Z,100.00
2023-01-11T11:35:40.715Z,100.00
2023-01-11T11:38:19.384Z,100.00
2023-01-11T11:41:03.910Z,100.00
2023-01-11T11:43:34.853Z,100.00
2023-01-11T11:46:02.732Z,100.00
2023-01-11T11:48:32.084Z,100.00
2023-01-11T11:51:05.382Z,100.00
2023-01-11T11:53:48.150Z,100.00
2023-01-11T11:56:31.591Z,100.00
2023-01-11T11:59:01.781Z,100.00
2023-01-11T12:01:40.020Z,100.00
2023-01-11T12:04:19.780Z,100.00
2023-01-11T12:07:22.183Z,100.00
2023-01-11T12:09:57.942Z,100.00
2023-01-11T12:12:27.862Z,100.00
2023-01-11T12:15:08.257Z,100.00
2023-01-11T12:17:35.335Z,100.00
2023-01-11T12:20:01.924Z,100.00
2023-01-11T12:22:29.269Z,100.00
2023-01-11T12:25:08.048Z,100.00
2023-01-11T12:27:53.831Z,100.00
2023-01-11T12:30:31.075Z,100.00
2023-01-11T12:33:27.817Z,100.00
2023-01-11T12:36:13.229Z,100.00
2023-01-11T12:38:51.154Z,100.00
2023-01-11T12:41:50.253Z,100.00
2023-01-11T12:44:44.282Z,100.00
2023-01-11T12:47:22.036Z,100.00
2023-01-11T12:50:16.761Z,100.00
2023-01-11T12:53:18.606Z,100.00
2023-01-11T12:56:16.670Z,100.00
2023-01-11T12:59:04.736Z,100.00
2023-01-11T13:01:41.968Z,100.00
2023-01-11T13:04:32.963Z,100.00
2023-01-11T13:07:16.666Z,100.00
2023-01-11T13:10:17.360Z,100.00
2023-01-11T13:13:06.296Z,100.00
2023-01-11T13:15:53.613Z,100.00
2023-01-11T13:18:44.849Z,100.00
2023-01-11T13:21:17.461Z,100.00
2023-01-11T13:23:54.912Z,100.00
2023-01-11T13:26:40.400Z,100.00
2023-01-11T13:29:14.713Z,100.00
2023-01-11T13:31:45.583Z,100.00
2023-01-11T13:34:18.923Z,100.00
2023-01-11T13:36:53.481Z,100.00
2023-01-11T13:39:36.220Z,100.00
2023-01-11T13:42:07.972Z,100.00
2023-01-11T13:44:49.551Z,100.00
2023-01-11T13:47:34.595Z,100.00
2023-01-11T13:50:16.845Z,100.00
2023-01-11T13:53:06.183Z,100.00
2023-01-11T13:55:58.506Z,100.00
2023-01-11T13:58:37.052Z,100.00
2023-01-11T14:01:21.391Z,100.00
2023-01-11T14:04:01.092Z,100.00
2023-01-11T14:06:45.020Z,100.00
2023-01-11T14:09:43.465Z,100.00
2023-01-11T14:12:35.077Z,100.00
2023-01-11T14:15:26.865Z,100.00
2023-01-11T14:18:14.251Z,100.00
2023-01-11T14:20:48.374Z,100.00
2023-01-11T14:23:20.506Z,100.00
2023-01-11T14:25:46.955Z,100.00
2023-01-11T14:28:27.841Z,100.00
2023-01-11T14:31:00.324Z,100.00
2023-01-11T14:33:35.911Z,100.00
2023-01-11T14:36:11.010Z,100.00
2023-01-11T14:38:58.046Z,100.00
2023-01-11T14:41:46.170Z,100.00
2023-01-11T14:44:24.995Z,100.00
2023-01-11T14:47:38.866Z,100.00
2023-01-11T14:50:10.930Z,100.00
2023-01-11T14:52:41.901Z,100.00
2023-01-11T14:55:18.879Z,100.00
2023-01-11T14:58:02.950Z,100.00
2023-01-11T15:00:29.379Z,100.00
2023-01-11T15:03:02.999Z,100.00
2023-01-11T15:05:38.005Z,100.00
2023-01-11T15:08:13.285Z,100.00
2023-01-11T15:10:50.451Z,100.00
2023-01-11T15:13:33.621Z,100.00
2023-01-11T15:16:38.115Z,100.00
2023-01-11T15:19:08.050Z,100.00
2023-01-11T15:21:49.721Z,100.00
2023-01-11T15:24:43.098Z,100.00
2023-01-11T15:27:36.685Z,100.00
2023-01-11T15:30:06.340Z,100.00
2023-01-11T15:32:34.875Z,100.00
2023-01-11T15:35:22.760Z,100.00
2023-01-11T15:38:02.543Z,100.00
2023-01-11T15:40:34.519Z,100.00
2023-01-11T15:43:20.571Z,100.00
2023-01-11T15:46:44.218Z,100.00
2023-01-11T15:49:48.267Z,100.00
2023-01-11T15:52:50.922Z,100.00
2023-01-11T15:55:52.207Z,100.00
2023-01-11T15:58:48.675Z,100.00
2023-01-11T16:01:30.818Z,100.00
2023-01-11T16:04:24.035Z,100.00
2023-01-11T16:06:50.598Z,100.00
2023-01-11T16:09:42.156Z,100.00
2023-01-11T16:12:46.671Z,100.00
2023-01-11T16:15:31.938Z,100.00
2023-01-11T16:18:10.932Z,100.00
2023-01-11T16:20:38.090Z,100.00
2023-01-11T16:23:06.030Z,100.00
2023-01-11T16:25:38.887Z,100.00
2023-01-11T16:28:06.323Z,100.00
2023-01-11T16:30:33.895Z,100.00
2023-01-11T16:33:21.444Z,100.00
2023-01-11T16:35:48.395Z,100.00
2023-01-11T16:38:20.730Z,100.00
2023-01-11T16:40:53.517Z,100.00
2023-01-11T16:43:25.382Z,100.00
2023-01-11T16:45:56.464Z,100.00
2023-01-11T16:48:27.363Z,100.00
2023-01-11T16:51:16.479Z,99.99
2023-01-11T16:53:53.436Z,99.96
2023-01-11T16:56:22.571Z,99.88
2023-01-11T16:59:30.551Z,99.36
2023-01-11T17:01:59.983Z,99.70
2023-01-11T17:04:51.028Z,99.21
2023-01-11T17:07:21.855Z,98.33
2023-01-11T17:09:48.538Z,98.50
2023-01-11T17:12:25.165Z,98.33
2023-01-11T17:14:51.689Z,97.66
2023-01-11T17:17:18.594Z,97.09
2023-01-11T17:19:50.574Z,97.38
2023-01-11T17:22:18.989Z,97.37
2023-01-11T17:25:15.735Z,97.01
2023-01-11T17:27:51.079Z,97.04
2023-01-11T17:30:21.538Z,97.09
2023-01-11T17:32:52.100Z,96.70
2023-01-11T17:35:24.355Z,96.39
2023-01-11T17:37:54.923Z,95.00
2023-01-11T17:40:23.501Z,95.38
2023-01-11T17:43:10.771Z,95.05
2023-01-11T17:45:39.423Z,94.66
2023-01-11T17:48:12.753Z,93.74
2023-01-11T17:50:53.962Z,93.35
2023-01-11T17:53:27.053Z,93.61
2023-01-11T17:56:01.053Z,93.35
2023-01-11T17:58:37.609Z,92.43
2023-01-11T18:01:16.321Z,92.42
2023-01-11T18:03:57.885Z,91.97
2023-01-11T18:06:44.995Z,91.77
2023-01-11T18:09:26.429Z,91.86
2023-01-11T18:11:54.154Z,91.87
2023-01-11T18:14:25.382Z,91.97
2023-01-11T18:17:04.155Z,91.33
2023-01-11T18:19:48.895Z,91.35
2023-01-11T18:22:27.247Z,90.79
2023-01-11T18:24:55.242Z,90.63
2023-01-11T18:27:30.453Z,91.81
2023-01-11T18:29:59.990Z,92.40
2023-01-11T18:32:29.707Z,93.02
2023-01-11T18:34:58.519Z,93.43
2023-01-11T18:37:29.249Z,93.46
2023-01-11T18:39:55.671Z,93.80
2023-01-11T18:42:28.507Z,94.18
2023-01-11T18:44:55.355Z,94.15
2023-01-11T18:47:28.455Z,94.73
2023-01-11T18:49:55.620Z,95.16
2023-01-11T18:52:27.703Z,95.64
2023-01-11T18:54:58.658Z,95.80
2023-01-11T18:57:25.772Z,96.07
2023-01-11T18:59:53.033Z,96.09
2023-01-11T19:02:42.461Z,96.32
2023-01-11T19:05:18.694Z,96.17
2023-01-11T19:07:46.503Z,96.16
2023-01-11T19:10:24.379Z,96.33
2023-01-11T19:12:51.144Z,96.39
2023-01-11T19:15:19.261Z,96.24
2023-01-11T19:17:45.930Z,96.45
2023-01-11T19:20:14.734Z,96.52
2023-01-11T19:22:41.869Z,96.25
2023-01-11T19:25:10.321Z,96.33
2023-01-11T19:27:37.931Z,95.95
2023-01-11T19:30:11.282Z,96.07
2023-01-11T19:32:38.008Z,96.34
2023-01-11T19:35:05.938Z,96.13
2023-01-11T19:37:34.915Z,96.56
2023-01-11T19:40:01.456Z,96.77
2023-01-11T19:42:32.444Z,97.00
2023-01-11T19:45:00.245Z,97.30
2023-01-11T19:47:29.853Z,97.66
2023-01-11T19:50:00.895Z,97.99
2023-01-11T19:52:29.967Z,98.10
2023-01-11T19:55:00.060Z,98.19
2023-01-11T19:57:27.550Z,98.74
2023-01-11T19:59:54.160Z,99.08
2023-01-11T20:02:22.294Z,99.25
2023-01-11T20:04:49.011Z,99.18
2023-01-11T20:07:21.825Z,99.61
2023-01-11T20:09:48.987Z,99.61
2023-01-11T20:12:25.808Z,100.00
2023-01-11T20:14:57.585Z,100.00
2023-01-11T20:17:25.022Z,100.00
2023-01-11T20:20:01.830Z,100.00
2023-01-11T20:22:28.851Z,100.00
2023-01-11T20:25:08.320Z,100.00
2023-01-11T20:30:15.578Z,100.00
2023-01-11T20:32:42.597Z,100.00
2023-01-11T20:35:12.408Z,100.00
2023-01-11T20:37:39.071Z,100.00
2023-01-11T20:40:08.838Z,100.00
2023-01-11T20:42:38.456Z,100.00
2023-01-11T20:45:11.393Z,100.00
2023-01-11T20:47:38.048Z,100.00
2023-01-11T20:50:04.853Z,100.00
2023-01-11T20:52:31.481Z,100.00
2023-01-11T20:54:59.439Z,100.00
2023-01-11T20:57:29.320Z,100.00
2023-01-11T20:59:56.435Z,100.00
2023-01-11T21:02:22.945Z,100.00
2023-01-11T21:04:53.712Z,100.00
2023-01-11T21:07:21.304Z,100.00
2023-01-11T21:09:48.938Z,100.00
2023-01-11T21:12:17.784Z,100.00
2023-01-11T21:14:50.547Z,100.00
2023-01-11T21:17:18.766Z,100.00
2023-01-11T21:19:46.541Z,100.00
2023-01-11T21:22:13.570Z,100.00
2023-01-11T21:24:41.834Z,100.00
2023-01-11T21:27:22.758Z,100.00
2023-01-11T21:29:53.935Z,100.00
2023-01-11T21:32:47.229Z,100.00
2023-01-11T21:35:35.214Z,100.00
2023-01-11T21:38:02.167Z,100.00
2023-01-11T21:40:30.540Z,100.00
2023-01-11T21:42:59.208Z,100.00
2023-01-11T21:45:28.367Z,100.00
2023-01-11T21:47:54.799Z,100.00
2023-01-11T21:50:22.787Z,100.00
2023-01-11T21:52:54.188Z,100.00
2023-01-11T21:55:21.027Z,100.00
2023-01-11T21:57:47.652Z,100.00
2023-01-11T22:00:18.290Z,100.00
2023-01-11T22:02:45.496Z,100.00
2023-01-11T22:05:15.129Z,100.00
2023-01-11T22:07:43.988Z,100.00
2023-01-11T22:10:10.727Z,100.00
2023-01-11T22:12:37.180Z,100.00
2023-01-11T22:15:06.922Z,100.00
2023-01-11T22:17:42.124Z,100.00
2023-01-11T22:20:10.959Z,100.00
2023-01-11T22:22:38.749Z,100.00
2023-01-11T22:25:11.277Z,100.00
2023-01-11T22:27:39.678Z,100.00
2023-01-11T22:30:06.813Z,100.00
2023-01-11T22:32:33.762Z,100.00
2023-01-11T22:35:01.278Z,100.00
2023-01-11T22:37:27.790Z,100.00
2023-01-11T22:39:54.540Z,100.00
2023-01-11T22:42:22.540Z,100.00
2023-01-11T22:44:49.733Z,100.00
2023-01-11T22:47:16.317Z,100.00
2023-01-11T22:49:43.128Z,100.00
2023-01-11T22:52:10.024Z,100.00
2023-01-11T22:54:36.581Z,100.00
2023-01-11T22:57:03.585Z,100.00
2023-01-11T22:59:30.833Z,100.00
2023-01-11T23:01:57.604Z,100.00
2023-01-11T23:04:24.245Z,100.00
2023-01-11T23:06:50.765Z,100.00
2023-01-11T23:09:17.935Z,100.00
2023-01-11T23:12:03.611Z,100.00
2023-01-11T23:14:32.813Z,100.00
2023-01-11T23:17:08.912Z,100.00
2023-01-11T23:19:40.250Z,100.00
2023-01-11T23:22:08.020Z,100.00
2023-01-11T23:24:35.792Z,100.00
2023-01-11T23:27:05.048Z,100.00
2023-01-11T23:29:36.601Z,100.00
2023-01-11T23:32:04.184Z,100.00
2023-01-11T23:34:31.970Z,100.00
2023-01-11T23:36:58.503Z,100.00
2023-01-11T23:39:26.174Z,99.91
2023-01-11T23:42:12.594Z,100.00
2023-01-11T23:44:41.246Z,100.00
2023-01-11T23:47:22.988Z,100.00
2023-01-11T23:49:52.165Z,99.99
2023-01-11T23:52:20.953Z,100.00
2023-01-11T23:54:47.593Z,100.00
2023-01-11T23:57:15.178Z,100.00
2023-01-11T23:59:45.628Z,100.00
